sensor_id;sensor_type;location;lat;lon;timestamp;P1;durP1;ratioP1;P2;durP2;ratioP2
37907;SDS011;23740;51.550;6.846;2023-08-20T00:00:13;3.95;;;3.00;;
37907;SDS011;23740;51.550;6.846;2023-08-20T00:02:42;5.95;;;2.78;;
37907;SDS011;23740;51.550;6.846;2023-08-20T00:05:15;4.03;;;2.53;;
37907;SDS011;23740;51.550;6.846;2023-08-20T00:07:44;5.53;;;3.15;;
37907;SDS011;23740;51.550;6.846;2023-08-20T00:10:14;4.07;;;2.58;;
37907;SDS011;23740;51.550;6.846;2023-08-20T00:12:43;3.85;;;2.33;;
37907;SDS011;23740;51.550;6.846;2023-08-20T00:15:11;2.83;;;2.47;;
37907;SDS011;23740;51.550;6.846;2023-08-20T00:17:39;5.43;;;3.17;;
37907;SDS011;23740;51.550;6.846;2023-08-20T00:20:09;3.83;;;2.53;;
37907;SDS011;23740;51.550;6.846;2023-08-20T00:22:41;3.58;;;2.60;;
37907;SDS011;23740;51.550;6.846;2023-08-20T00:25:12;3.10;;;2.53;;
37907;SDS011;23740;51.550;6.846;2023-08-20T00:27:41;2.92;;;2.45;;
37907;SDS011;23740;51.550;6.846;2023-08-20T00:30:10;4.68;;;2.60;;
37907;SDS011;23740;51.550;6.846;2023-08-20T00:32:38;3.55;;;3.15;;
37907;SDS011;23740;51.550;6.846;2023-08-20T00:35:07;4.18;;;3.17;;
37907;SDS011;23740;51.550;6.846;2023-08-20T00:37:35;4.97;;;3.00;;
37907;SDS011;23740;51.550;6.846;2023-08-20T00:40:05;6.22;;;3.22;;
37907;SDS011;23740;51.550;6.846;2023-08-20T00:42:36;5.18;;;2.80;;
37907;SDS011;23740;51.550;6.846;2023-08-20T00:45:08;5.03;;;2.60;;
37907;SDS011;23740;51.550;6.846;2023-08-20T00:47:36;5.72;;;3.10;;
37907;SDS011;23740;51.550;6.846;2023-08-20T00:50:08;4.13;;;2.75;;
37907;SDS011;23740;51.550;6.846;2023-08-20T00:52:37;4.10;;;2.80;;
37907;SDS011;23740;51.550;6.846;2023-08-20T00:55:07;6.25;;;2.80;;
37907;SDS011;23740;51.550;6.846;2023-08-20T00:57:36;4.35;;;2.50;;
37907;SDS011;23740;51.550;6.846;2023-08-20T01:00:05;3.35;;;2.78;;
37907;SDS011;23740;51.550;6.846;2023-08-20T01:02:35;6.13;;;2.85;;
37907;SDS011;23740;51.550;6.846;2023-08-20T01:05:03;4.82;;;3.13;;
37907;SDS011;23740;51.550;6.846;2023-08-20T01:07:36;4.35;;;2.95;;
37907;SDS011;23740;51.550;6.846;2023-08-20T01:10:13;3.20;;;2.75;;
37907;SDS011;23740;51.550;6.846;2023-08-20T01:12:46;4.72;;;3.30;;
37907;SDS011;23740;51.550;6.846;2023-08-20T01:15:14;4.72;;;2.97;;
37907;SDS011;23740;51.550;6.846;2023-08-20T01:17:42;4.75;;;2.63;;
37907;SDS011;23740;51.550;6.846;2023-08-20T01:20:12;4.30;;;3.15;;
37907;SDS011;23740;51.550;6.846;2023-08-20T01:25:42;5.40;;;3.78;;
37907;SDS011;23740;51.550;6.846;2023-08-20T01:28:25;6.15;;;3.75;;
37907;SDS011;23740;51.550;6.846;2023-08-20T01:30:54;8.02;;;4.57;;
37907;SDS011;23740;51.550;6.846;2023-08-20T01:33:24;6.80;;;4.95;;
37907;SDS011;23740;51.550;6.846;2023-08-20T01:35:53;9.23;;;5.47;;
37907;SDS011;23740;51.550;6.846;2023-08-20T01:38:22;7.78;;;4.63;;
37907;SDS011;23740;51.550;6.846;2023-08-20T01:40:51;6.78;;;5.00;;
37907;SDS011;23740;51.550;6.846;2023-08-20T01:43:20;7.85;;;4.80;;
37907;SDS011;23740;51.550;6.846;2023-08-20T01:45:50;7.25;;;4.85;;
37907;SDS011;23740;51.550;6.846;2023-08-20T01:48:18;7.18;;;5.15;;
37907;SDS011;23740;51.550;6.846;2023-08-20T01:50:46;7.00;;;4.70;;
37907;SDS011;23740;51.550;6.846;2023-08-20T01:53:14;9.30;;;5.50;;
37907;SDS011;23740;51.550;6.846;2023-08-20T01:55:43;7.95;;;5.32;;
37907;SDS011;23740;51.550;6.846;2023-08-20T01:58:11;10.65;;;6.25;;
37907;SDS011;23740;51.550;6.846;2023-08-20T02:00:41;9.73;;;5.88;;
37907;SDS011;23740;51.550;6.846;2023-08-20T02:03:11;9.32;;;5.50;;
37907;SDS011;23740;51.550;6.846;2023-08-20T02:05:39;8.68;;;5.68;;
37907;SDS011;23740;51.550;6.846;2023-08-20T02:08:08;8.15;;;5.13;;
37907;SDS011;23740;51.550;6.846;2023-08-20T02:10:37;5.95;;;4.80;;
37907;SDS011;23740;51.550;6.846;2023-08-20T02:13:05;7.22;;;4.95;;
37907;SDS011;23740;51.550;6.846;2023-08-20T02:15:34;8.30;;;5.00;;
37907;SDS011;23740;51.550;6.846;2023-08-20T02:18:03;8.27;;;5.13;;
37907;SDS011;23740;51.550;6.846;2023-08-20T02:20:33;6.90;;;4.53;;
37907;SDS011;23740;51.550;6.846;2023-08-20T02:23:02;6.85;;;5.18;;
37907;SDS011;23740;51.550;6.846;2023-08-20T02:25:31;7.85;;;5.00;;
37907;SDS011;23740;51.550;6.846;2023-08-20T02:28:00;7.28;;;4.97;;
37907;SDS011;23740;51.550;6.846;2023-08-20T02:30:28;7.45;;;5.20;;
37907;SDS011;23740;51.550;6.846;2023-08-20T02:32:56;9.07;;;4.47;;
37907;SDS011;23740;51.550;6.846;2023-08-20T02:35:24;7.13;;;4.63;;
37907;SDS011;23740;51.550;6.846;2023-08-20T02:37:53;6.78;;;5.18;;
37907;SDS011;23740;51.550;6.846;2023-08-20T02:40:21;6.72;;;4.68;;
37907;SDS011;23740;51.550;6.846;2023-08-20T02:42:49;6.55;;;4.88;;
37907;SDS011;23740;51.550;6.846;2023-08-20T02:45:17;8.05;;;5.03;;
37907;SDS011;23740;51.550;6.846;2023-08-20T02:47:45;8.57;;;5.07;;
37907;SDS011;23740;51.550;6.846;2023-08-20T02:50:13;7.43;;;5.07;;
37907;SDS011;23740;51.550;6.846;2023-08-20T02:52:41;9.73;;;4.95;;
37907;SDS011;23740;51.550;6.846;2023-08-20T02:55:10;7.32;;;4.88;;
37907;SDS011;23740;51.550;6.846;2023-08-20T02:57:38;8.75;;;5.28;;
37907;SDS011;23740;51.550;6.846;2023-08-20T03:00:06;7.38;;;5.18;;
37907;SDS011;23740;51.550;6.846;2023-08-20T03:02:37;8.65;;;5.55;;
37907;SDS011;23740;51.550;6.846;2023-08-20T03:05:06;7.88;;;4.93;;
37907;SDS011;23740;51.550;6.846;2023-08-20T03:07:35;7.32;;;5.28;;
37907;SDS011;23740;51.550;6.846;2023-08-20T03:10:03;7.40;;;4.78;;
37907;SDS011;23740;51.550;6.846;2023-08-20T03:12:33;8.45;;;5.28;;
37907;SDS011;23740;51.550;6.846;2023-08-20T03:15:01;7.18;;;5.13;;
37907;SDS011;23740;51.550;6.846;2023-08-20T03:17:30;8.23;;;5.20;;
37907;SDS011;23740;51.550;6.846;2023-08-20T03:19:59;9.00;;;5.07;;
37907;SDS011;23740;51.550;6.846;2023-08-20T03:22:27;8.50;;;5.75;;
37907;SDS011;23740;51.550;6.846;2023-08-20T03:24:55;7.25;;;4.75;;
37907;SDS011;23740;51.550;6.846;2023-08-20T03:27:23;8.27;;;5.65;;
37907;SDS011;23740;51.550;6.846;2023-08-20T03:29:52;9.48;;;5.70;;
37907;SDS011;23740;51.550;6.846;2023-08-20T03:32:20;10.23;;;5.40;;
37907;SDS011;23740;51.550;6.846;2023-08-20T03:34:48;7.45;;;5.50;;
37907;SDS011;23740;51.550;6.846;2023-08-20T03:37:16;8.32;;;5.65;;
37907;SDS011;23740;51.550;6.846;2023-08-20T03:39:44;7.57;;;5.25;;
37907;SDS011;23740;51.550;6.846;2023-08-20T03:42:12;7.75;;;4.97;;
37907;SDS011;23740;51.550;6.846;2023-08-20T03:44:40;9.10;;;5.63;;
37907;SDS011;23740;51.550;6.846;2023-08-20T03:47:09;7.97;;;5.85;;
37907;SDS011;23740;51.550;6.846;2023-08-20T03:49:37;8.75;;;5.90;;
37907;SDS011;23740;51.550;6.846;2023-08-20T03:52:05;9.93;;;6.40;;
37907;SDS011;23740;51.550;6.846;2023-08-20T03:54:33;9.38;;;5.68;;
37907;SDS011;23740;51.550;6.846;2023-08-20T03:57:01;10.88;;;6.50;;
37907;SDS011;23740;51.550;6.846;2023-08-20T03:59:29;10.80;;;6.75;;
37907;SDS011;23740;51.550;6.846;2023-08-20T04:01:57;8.98;;;6.25;;
37907;SDS011;23740;51.550;6.846;2023-08-20T04:04:26;13.07;;;7.22;;
37907;SDS011;23740;51.550;6.846;2023-08-20T04:06:54;13.48;;;7.30;;
37907;SDS011;23740;51.550;6.846;2023-08-20T04:09:22;11.43;;;7.15;;
37907;SDS011;23740;51.550;6.846;2023-08-20T04:11:50;12.50;;;7.53;;
37907;SDS011;23740;51.550;6.846;2023-08-20T04:14:18;13.48;;;7.85;;
37907;SDS011;23740;51.550;6.846;2023-08-20T04:16:46;13.60;;;7.35;;
37907;SDS011;23740;51.550;6.846;2023-08-20T04:19:14;11.52;;;7.75;;
37907;SDS011;23740;51.550;6.846;2023-08-20T04:21:43;12.63;;;7.10;;
37907;SDS011;23740;51.550;6.846;2023-08-20T04:24:11;13.57;;;7.43;;
37907;SDS011;23740;51.550;6.846;2023-08-20T04:26:39;11.98;;;7.20;;
37907;SDS011;23740;51.550;6.846;2023-08-20T04:29:09;13.25;;;7.05;;
37907;SDS011;23740;51.550;6.846;2023-08-20T04:31:36;12.02;;;6.75;;
37907;SDS011;23740;51.550;6.846;2023-08-20T04:34:04;10.57;;;5.90;;
37907;SDS011;23740;51.550;6.846;2023-08-20T04:36:32;11.50;;;6.85;;
37907;SDS011;23740;51.550;6.846;2023-08-20T04:39:02;8.98;;;6.18;;
37907;SDS011;23740;51.550;6.846;2023-08-20T04:41:31;9.48;;;5.43;;
37907;SDS011;23740;51.550;6.846;2023-08-20T04:43:58;8.70;;;5.50;;
37907;SDS011;23740;51.550;6.846;2023-08-20T04:46:26;8.52;;;5.18;;
37907;SDS011;23740;51.550;6.846;2023-08-20T04:48:55;8.90;;;6.20;;
37907;SDS011;23740;51.550;6.846;2023-08-20T04:51:22;8.10;;;5.50;;
37907;SDS011;23740;51.550;6.846;2023-08-20T04:53:50;8.85;;;6.00;;
37907;SDS011;23740;51.550;6.846;2023-08-20T04:56:20;7.55;;;5.85;;
37907;SDS011;23740;51.550;6.846;2023-08-20T04:58:47;11.57;;;6.63;;
37907;SDS011;23740;51.550;6.846;2023-08-20T05:01:15;10.30;;;6.25;;
37907;SDS011;23740;51.550;6.846;2023-08-20T05:03:43;10.50;;;6.38;;
37907;SDS011;23740;51.550;6.846;2023-08-20T05:06:11;8.80;;;6.63;;
37907;SDS011;23740;51.550;6.846;2023-08-20T05:08:39;10.57;;;6.65;;
37907;SDS011;23740;51.550;6.846;2023-08-20T05:11:06;10.07;;;6.22;;
37907;SDS011;23740;51.550;6.846;2023-08-20T05:13:36;10.57;;;6.03;;
37907;SDS011;23740;51.550;6.846;2023-08-20T05:16:03;11.50;;;6.75;;
37907;SDS011;23740;51.550;6.846;2023-08-20T05:18:31;9.32;;;5.93;;
37907;SDS011;23740;51.550;6.846;2023-08-20T05:20:59;8.77;;;6.15;;
37907;SDS011;23740;51.550;6.846;2023-08-20T05:23:27;8.70;;;5.70;;
37907;SDS011;23740;51.550;6.846;2023-08-20T05:25:55;9.25;;;5.78;;
37907;SDS011;23740;51.550;6.846;2023-08-20T05:28:22;11.90;;;6.63;;
37907;SDS011;23740;51.550;6.846;2023-08-20T05:30:55;10.02;;;6.97;;
37907;SDS011;23740;51.550;6.846;2023-08-20T05:33:23;12.10;;;6.65;;
37907;SDS011;23740;51.550;6.846;2023-08-20T05:35:51;13.23;;;7.80;;
37907;SDS011;23740;51.550;6.846;2023-08-20T05:38:19;13.90;;;8.88;;
37907;SDS011;23740;51.550;6.846;2023-08-20T05:40:50;16.70;;;8.40;;
37907;SDS011;23740;51.550;6.846;2023-08-20T05:43:18;12.77;;;8.05;;
37907;SDS011;23740;51.550;6.846;2023-08-20T05:45:46;11.23;;;7.88;;
37907;SDS011;23740;51.550;6.846;2023-08-20T05:48:15;12.18;;;8.07;;
37907;SDS011;23740;51.550;6.846;2023-08-20T05:50:43;15.25;;;8.90;;
37907;SDS011;23740;51.550;6.846;2023-08-20T05:53:10;17.98;;;12.05;;
37907;SDS011;23740;51.550;6.846;2023-08-20T05:55:38;13.48;;;8.52;;
37907;SDS011;23740;51.550;6.846;2023-08-20T05:58:06;15.50;;;8.98;;
37907;SDS011;23740;51.550;6.846;2023-08-20T06:00:34;13.85;;;9.00;;
37907;SDS011;23740;51.550;6.846;2023-08-20T06:03:02;16.45;;;9.13;;
37907;SDS011;23740;51.550;6.846;2023-08-20T06:05:31;16.27;;;10.20;;
37907;SDS011;23740;51.550;6.846;2023-08-20T06:07:59;18.10;;;10.95;;
37907;SDS011;23740;51.550;6.846;2023-08-20T06:10:27;25.80;;;14.98;;
37907;SDS011;23740;51.550;6.846;2023-08-20T06:12:55;25.52;;;14.05;;
37907;SDS011;23740;51.550;6.846;2023-08-20T06:15:23;23.45;;;13.68;;
37907;SDS011;23740;51.550;6.846;2023-08-20T06:17:51;25.25;;;15.55;;
37907;SDS011;23740;51.550;6.846;2023-08-20T06:20:19;22.95;;;14.95;;
37907;SDS011;23740;51.550;6.846;2023-08-20T06:22:48;28.00;;;15.10;;
37907;SDS011;23740;51.550;6.846;2023-08-20T06:25:16;29.40;;;15.70;;
37907;SDS011;23740;51.550;6.846;2023-08-20T06:27:43;27.13;;;16.55;;
37907;SDS011;23740;51.550;6.846;2023-08-20T06:30:12;24.73;;;15.85;;
37907;SDS011;23740;51.550;6.846;2023-08-20T06:32:40;31.27;;;16.33;;
37907;SDS011;23740;51.550;6.846;2023-08-20T06:35:09;26.40;;;17.13;;
37907;SDS011;23740;51.550;6.846;2023-08-20T06:37:38;29.80;;;16.83;;
37907;SDS011;23740;51.550;6.846;2023-08-20T06:40:08;29.02;;;18.13;;
37907;SDS011;23740;51.550;6.846;2023-08-20T06:42:36;24.98;;;16.02;;
37907;SDS011;23740;51.550;6.846;2023-08-20T06:45:06;24.50;;;15.13;;
37907;SDS011;23740;51.550;6.846;2023-08-20T06:47:35;25.15;;;14.20;;
37907;SDS011;23740;51.550;6.846;2023-08-20T06:50:04;22.95;;;13.75;;
37907;SDS011;23740;51.550;6.846;2023-08-20T06:52:33;24.60;;;14.35;;
37907;SDS011;23740;51.550;6.846;2023-08-20T06:55:01;23.40;;;12.90;;
37907;SDS011;23740;51.550;6.846;2023-08-20T06:57:30;25.45;;;14.73;;
37907;SDS011;23740;51.550;6.846;2023-08-20T06:59:58;23.67;;;15.80;;
37907;SDS011;23740;51.550;6.846;2023-08-20T07:02:26;25.88;;;15.77;;
37907;SDS011;23740;51.550;6.846;2023-08-20T07:04:54;25.42;;;14.88;;
37907;SDS011;23740;51.550;6.846;2023-08-20T07:07:21;24.60;;;14.10;;
37907;SDS011;23740;51.550;6.846;2023-08-20T07:09:49;23.05;;;14.38;;
37907;SDS011;23740;51.550;6.846;2023-08-20T07:12:17;21.65;;;14.20;;
37907;SDS011;23740;51.550;6.846;2023-08-20T07:14:46;21.35;;;13.93;;
37907;SDS011;23740;51.550;6.846;2023-08-20T07:17:14;21.77;;;13.23;;
37907;SDS011;23740;51.550;6.846;2023-08-20T07:19:41;24.15;;;14.02;;
37907;SDS011;23740;51.550;6.846;2023-08-20T07:22:09;22.55;;;13.65;;
37907;SDS011;23740;51.550;6.846;2023-08-20T07:24:37;20.48;;;13.75;;
37907;SDS011;23740;51.550;6.846;2023-08-20T07:27:05;20.85;;;13.57;;
37907;SDS011;23740;51.550;6.846;2023-08-20T07:29:37;21.70;;;13.80;;
37907;SDS011;23740;51.550;6.846;2023-08-20T07:32:06;17.40;;;12.43;;
37907;SDS011;23740;51.550;6.846;2023-08-20T07:34:34;22.35;;;13.02;;
37907;SDS011;23740;51.550;6.846;2023-08-20T07:37:02;21.50;;;13.90;;
37907;SDS011;23740;51.550;6.846;2023-08-20T07:39:31;18.40;;;12.98;;
37907;SDS011;23740;51.550;6.846;2023-08-20T07:41:59;19.30;;;12.60;;
37907;SDS011;23740;51.550;6.846;2023-08-20T07:44:27;18.35;;;11.82;;
37907;SDS011;23740;51.550;6.846;2023-08-20T07:46:55;19.80;;;13.23;;
37907;SDS011;23740;51.550;6.846;2023-08-20T07:49:24;17.85;;;12.98;;
37907;SDS011;23740;51.550;6.846;2023-08-20T07:51:52;19.42;;;12.52;;
37907;SDS011;23740;51.550;6.846;2023-08-20T07:54:20;18.52;;;12.48;;
37907;SDS011;23740;51.550;6.846;2023-08-20T07:56:48;22.17;;;13.10;;
37907;SDS011;23740;51.550;6.846;2023-08-20T07:59:16;20.80;;;12.75;;
37907;SDS011;23740;51.550;6.846;2023-08-20T08:01:44;19.67;;;11.93;;
37907;SDS011;23740;51.550;6.846;2023-08-20T08:04:12;18.20;;;12.80;;
37907;SDS011;23740;51.550;6.846;2023-08-20T08:06:41;16.05;;;12.07;;
37907;SDS011;23740;51.550;6.846;2023-08-20T08:09:18;14.48;;;11.43;;
37907;SDS011;23740;51.550;6.846;2023-08-20T08:11:48;16.33;;;11.60;;
37907;SDS011;23740;51.550;6.846;2023-08-20T08:14:18;16.45;;;11.65;;
37907;SDS011;23740;51.550;6.846;2023-08-20T08:16:47;14.98;;;12.77;;
37907;SDS011;23740;51.550;6.846;2023-08-20T08:19:15;16.35;;;12.18;;
37907;SDS011;23740;51.550;6.846;2023-08-20T08:21:44;16.55;;;12.10;;
37907;SDS011;23740;51.550;6.846;2023-08-20T08:24:12;15.55;;;12.32;;
37907;SDS011;23740;51.550;6.846;2023-08-20T08:26:41;17.20;;;12.73;;
37907;SDS011;23740;51.550;6.846;2023-08-20T08:29:09;15.65;;;12.63;;
37907;SDS011;23740;51.550;6.846;2023-08-20T08:31:38;18.33;;;12.88;;
37907;SDS011;23740;51.550;6.846;2023-08-20T08:34:05;17.85;;;12.82;;
37907;SDS011;23740;51.550;6.846;2023-08-20T08:36:33;16.98;;;12.68;;
37907;SDS011;23740;51.550;6.846;2023-08-20T08:39:05;16.60;;;12.18;;
37907;SDS011;23740;51.550;6.846;2023-08-20T08:41:34;13.70;;;11.10;;
37907;SDS011;23740;51.550;6.846;2023-08-20T08:44:03;13.75;;;10.65;;
37907;SDS011;23740;51.550;6.846;2023-08-20T08:46:31;14.20;;;11.35;;
37907;SDS011;23740;51.550;6.846;2023-08-20T08:48:59;14.00;;;11.75;;
37907;SDS011;23740;51.550;6.846;2023-08-20T08:51:27;14.77;;;10.25;;
37907;SDS011;23740;51.550;6.846;2023-08-20T08:53:55;12.27;;;10.73;;
37907;SDS011;23740;51.550;6.846;2023-08-20T08:56:25;14.63;;;12.30;;
37907;SDS011;23740;51.550;6.846;2023-08-20T08:58:53;11.75;;;10.27;;
37907;SDS011;23740;51.550;6.846;2023-08-20T09:01:21;8.60;;;7.70;;
37907;SDS011;23740;51.550;6.846;2023-08-20T09:03:48;13.90;;;9.75;;
37907;SDS011;23740;51.550;6.846;2023-08-20T09:06:17;13.98;;;10.60;;
37907;SDS011;23740;51.550;6.846;2023-08-20T09:08:44;11.10;;;9.38;;
37907;SDS011;23740;51.550;6.846;2023-08-20T09:11:12;11.77;;;9.13;;
37907;SDS011;23740;51.550;6.846;2023-08-20T09:13:42;11.88;;;8.75;;
37907;SDS011;23740;51.550;6.846;2023-08-20T09:16:11;9.88;;;8.35;;
37907;SDS011;23740;51.550;6.846;2023-08-20T09:18:39;11.35;;;9.35;;
37907;SDS011;23740;51.550;6.846;2023-08-20T09:21:08;12.90;;;10.52;;
37907;SDS011;23740;51.550;6.846;2023-08-20T09:23:36;11.30;;;8.90;;
37907;SDS011;23740;51.550;6.846;2023-08-20T09:26:04;13.10;;;10.15;;
37907;SDS011;23740;51.550;6.846;2023-08-20T09:28:40;10.60;;;9.50;;
37907;SDS011;23740;51.550;6.846;2023-08-20T09:31:09;10.00;;;7.90;;
37907;SDS011;23740;51.550;6.846;2023-08-20T09:33:39;9.48;;;8.00;;
37907;SDS011;23740;51.550;6.846;2023-08-20T09:36:16;8.30;;;7.32;;
37907;SDS011;23740;51.550;6.846;2023-08-20T09:38:44;7.55;;;6.82;;
37907;SDS011;23740;51.550;6.846;2023-08-20T09:41:15;9.35;;;7.35;;
37907;SDS011;23740;51.550;6.846;2023-08-20T09:43:44;9.75;;;8.35;;
37907;SDS011;23740;51.550;6.846;2023-08-20T09:46:12;10.18;;;8.00;;
37907;SDS011;23740;51.550;6.846;2023-08-20T09:48:41;10.13;;;8.45;;
37907;SDS011;23740;51.550;6.846;2023-08-20T09:51:11;11.85;;;10.27;;
37907;SDS011;23740;51.550;6.846;2023-08-20T09:53:42;11.80;;;9.43;;
37907;SDS011;23740;51.550;6.846;2023-08-20T09:56:15;11.15;;;9.68;;
37907;SDS011;23740;51.550;6.846;2023-08-20T09:58:48;11.75;;;10.63;;
37907;SDS011;23740;51.550;6.846;2023-08-20T10:01:16;11.88;;;10.27;;
37907;SDS011;23740;51.550;6.846;2023-08-20T10:03:44;12.00;;;10.20;;
37907;SDS011;23740;51.550;6.846;2023-08-20T10:06:12;12.68;;;11.38;;
37907;SDS011;23740;51.550;6.846;2023-08-20T10:08:40;11.63;;;10.40;;
37907;SDS011;23740;51.550;6.846;2023-08-20T10:11:08;14.43;;;12.30;;
37907;SDS011;23740;51.550;6.846;2023-08-20T10:13:36;13.05;;;11.75;;
37907;SDS011;23740;51.550;6.846;2023-08-20T10:16:05;13.40;;;12.10;;
37907;SDS011;23740;51.550;6.846;2023-08-20T10:18:34;13.02;;;11.38;;
37907;SDS011;23740;51.550;6.846;2023-08-20T10:21:02;12.05;;;10.85;;
37907;SDS011;23740;51.550;6.846;2023-08-20T10:23:30;13.10;;;10.90;;
37907;SDS011;23740;51.550;6.846;2023-08-20T10:26:06;12.25;;;10.95;;
37907;SDS011;23740;51.550;6.846;2023-08-20T10:28:35;11.75;;;9.65;;
37907;SDS011;23740;51.550;6.846;2023-08-20T10:31:04;10.38;;;8.15;;
37907;SDS011;23740;51.550;6.846;2023-08-20T10:33:38;8.85;;;7.90;;
37907;SDS011;23740;51.550;6.846;2023-08-20T10:36:06;10.48;;;9.25;;
37907;SDS011;23740;51.550;6.846;2023-08-20T10:38:35;11.20;;;9.45;;
37907;SDS011;23740;51.550;6.846;2023-08-20T10:41:05;11.75;;;8.57;;
37907;SDS011;23740;51.550;6.846;2023-08-20T10:43:34;10.32;;;8.70;;
37907;SDS011;23740;51.550;6.846;2023-08-20T10:46:03;10.77;;;9.32;;
37907;SDS011;23740;51.550;6.846;2023-08-20T10:48:38;12.82;;;11.60;;
37907;SDS011;23740;51.550;6.846;2023-08-20T10:51:07;15.43;;;13.90;;
37907;SDS011;23740;51.550;6.846;2023-08-20T10:53:36;15.48;;;13.95;;
37907;SDS011;23740;51.550;6.846;2023-08-20T10:56:08;14.38;;;12.88;;
37907;SDS011;23740;51.550;6.846;2023-08-20T10:58:44;13.55;;;12.32;;
37907;SDS011;23740;51.550;6.846;2023-08-20T11:01:13;12.10;;;11.00;;
37907;SDS011;23740;51.550;6.846;2023-08-20T11:03:50;9.30;;;7.85;;
37907;SDS011;23740;51.550;6.846;2023-08-20T11:06:18;8.88;;;8.18;;
37907;SDS011;23740;51.550;6.846;2023-08-20T11:08:46;8.25;;;7.38;;
37907;SDS011;23740;51.550;6.846;2023-08-20T11:11:14;6.70;;;6.10;;
37907;SDS011;23740;51.550;6.846;2023-08-20T11:13:41;9.02;;;8.23;;
37907;SDS011;23740;51.550;6.846;2023-08-20T11:16:09;8.45;;;7.63;;
37907;SDS011;23740;51.550;6.846;2023-08-20T11:18:37;9.98;;;9.07;;
37907;SDS011;23740;51.550;6.846;2023-08-20T11:21:06;8.55;;;7.75;;
37907;SDS011;23740;51.550;6.846;2023-08-20T11:23:35;8.27;;;7.35;;
37907;SDS011;23740;51.550;6.846;2023-08-20T11:26:06;6.55;;;5.95;;
37907;SDS011;23740;51.550;6.846;2023-08-20T11:28:35;5.22;;;4.82;;
37907;SDS011;23740;51.550;6.846;2023-08-20T11:31:03;6.60;;;5.90;;
37907;SDS011;23740;51.550;6.846;2023-08-20T11:33:30;8.77;;;7.90;;
37907;SDS011;23740;51.550;6.846;2023-08-20T11:36:01;6.05;;;5.43;;
37907;SDS011;23740;51.550;6.846;2023-08-20T11:38:34;6.63;;;6.13;;
37907;SDS011;23740;51.550;6.846;2023-08-20T11:41:02;7.05;;;6.38;;
37907;SDS011;23740;51.550;6.846;2023-08-20T11:43:29;5.72;;;4.45;;
37907;SDS011;23740;51.550;6.846;2023-08-20T11:45:57;5.10;;;4.60;;
37907;SDS011;23740;51.550;6.846;2023-08-20T11:48:25;4.32;;;3.92;;
37907;SDS011;23740;51.550;6.846;2023-08-20T11:50:53;4.93;;;4.55;;
37907;SDS011;23740;51.550;6.846;2023-08-20T11:53:23;3.92;;;3.65;;
37907;SDS011;23740;51.550;6.846;2023-08-20T11:55:53;3.85;;;3.55;;
37907;SDS011;23740;51.550;6.846;2023-08-20T11:58:21;3.78;;;3.35;;
37907;SDS011;23740;51.550;6.846;2023-08-20T12:00:49;3.53;;;3.22;;
37907;SDS011;23740;51.550;6.846;2023-08-20T12:03:18;4.05;;;3.65;;
37907;SDS011;23740;51.550;6.846;2023-08-20T12:05:46;3.90;;;3.45;;
37907;SDS011;23740;51.550;6.846;2023-08-20T12:08:15;3.42;;;3.13;;
37907;SDS011;23740;51.550;6.846;2023-08-20T12:10:44;3.35;;;3.05;;
37907;SDS011;23740;51.550;6.846;2023-08-20T12:13:13;3.88;;;2.72;;
37907;SDS011;23740;51.550;6.846;2023-08-20T12:15:41;3.30;;;3.00;;
37907;SDS011;23740;51.550;6.846;2023-08-20T12:18:08;3.88;;;3.40;;
37907;SDS011;23740;51.550;6.846;2023-08-20T12:20:36;4.18;;;2.90;;
37907;SDS011;23740;51.550;6.846;2023-08-20T12:23:05;3.78;;;2.85;;
37907;SDS011;23740;51.550;6.846;2023-08-20T12:25:34;3.17;;;2.83;;
37907;SDS011;23740;51.550;6.846;2023-08-20T12:28:03;3.95;;;2.47;;
37907;SDS011;23740;51.550;6.846;2023-08-20T12:30:33;3.03;;;2.70;;
37907;SDS011;23740;51.550;6.846;2023-08-20T12:33:04;3.60;;;2.03;;
37907;SDS011;23740;51.550;6.846;2023-08-20T12:35:33;2.33;;;1.98;;
37907;SDS011;23740;51.550;6.846;2023-08-20T12:38:01;4.85;;;2.75;;
37907;SDS011;23740;51.550;6.846;2023-08-20T12:40:29;2.80;;;2.40;;
37907;SDS011;23740;51.550;6.846;2023-08-20T12:42:57;2.80;;;2.17;;
37907;SDS011;23740;51.550;6.846;2023-08-20T12:45:25;2.85;;;2.63;;
37907;SDS011;23740;51.550;6.846;2023-08-20T12:47:54;3.15;;;1.98;;
37907;SDS011;23740;51.550;6.846;2023-08-20T12:50:26;2.55;;;2.22;;
37907;SDS011;23740;51.550;6.846;2023-08-20T12:52:54;3.00;;;2.22;;
37907;SDS011;23740;51.550;6.846;2023-08-20T12:55:22;2.85;;;2.63;;
37907;SDS011;23740;51.550;6.846;2023-08-20T12:57:54;2.92;;;2.45;;
37907;SDS011;23740;51.550;6.846;2023-08-20T13:02:52;3.42;;;2.17;;
37907;SDS011;23740;51.550;6.846;2023-08-20T13:05:23;2.45;;;1.98;;
37907;SDS011;23740;51.550;6.846;2023-08-20T13:07:52;2.35;;;1.65;;
37907;SDS011;23740;51.550;6.846;2023-08-20T13:10:20;2.88;;;2.33;;
37907;SDS011;23740;51.550;6.846;2023-08-20T13:12:50;3.10;;;2.35;;
37907;SDS011;23740;51.550;6.846;2023-08-20T13:15:21;3.88;;;2.63;;
37907;SDS011;23740;51.550;6.846;2023-08-20T13:17:49;3.25;;;2.40;;
37907;SDS011;23740;51.550;6.846;2023-08-20T13:20:19;4.13;;;2.72;;
37907;SDS011;23740;51.550;6.846;2023-08-20T13:22:51;2.33;;;1.77;;
37907;SDS011;23740;51.550;6.846;2023-08-20T13:25:19;2.42;;;2.30;;
37907;SDS011;23740;51.550;6.846;2023-08-20T13:27:48;2.55;;;1.98;;
37907;SDS011;23740;51.550;6.846;2023-08-20T13:30:17;3.63;;;2.40;;
37907;SDS011;23740;51.550;6.846;2023-08-20T13:32:45;2.67;;;2.45;;
37907;SDS011;23740;51.550;6.846;2023-08-20T13:35:13;2.60;;;2.03;;
37907;SDS011;23740;51.550;6.846;2023-08-20T13:37:41;3.42;;;2.45;;
37907;SDS011;23740;51.550;6.846;2023-08-20T13:40:11;3.22;;;2.22;;
37907;SDS011;23740;51.550;6.846;2023-08-20T13:42:39;3.03;;;2.22;;
37907;SDS011;23740;51.550;6.846;2023-08-20T13:45:08;7.40;;;6.65;;
37907;SDS011;23740;51.550;6.846;2023-08-20T13:47:36;3.75;;;3.45;;
37907;SDS011;23740;51.550;6.846;2023-08-20T13:50:05;5.03;;;2.55;;
37907;SDS011;23740;51.550;6.846;2023-08-20T13:52:33;4.28;;;2.95;;
37907;SDS011;23740;51.550;6.846;2023-08-20T13:55:01;4.68;;;2.40;;
37907;SDS011;23740;51.550;6.846;2023-08-20T13:57:31;4.43;;;2.00;;
37907;SDS011;23740;51.550;6.846;2023-08-20T13:59:59;4.90;;;2.20;;
37907;SDS011;23740;51.550;6.846;2023-08-20T14:02:27;4.50;;;2.15;;
37907;SDS011;23740;51.550;6.846;2023-08-20T14:04:55;2.95;;;2.03;;
37907;SDS011;23740;51.550;6.846;2023-08-20T14:07:22;4.40;;;2.30;;
37907;SDS011;23740;51.550;6.846;2023-08-20T14:09:50;3.60;;;2.15;;
37907;SDS011;23740;51.550;6.846;2023-08-20T14:12:18;2.22;;;1.88;;
37907;SDS011;23740;51.550;6.846;2023-08-20T14:14:48;2.63;;;2.10;;
37907;SDS011;23740;51.550;6.846;2023-08-20T14:17:16;3.65;;;1.85;;
37907;SDS011;23740;51.550;6.846;2023-08-20T14:19:43;2.90;;;1.92;;
37907;SDS011;23740;51.550;6.846;2023-08-20T14:22:12;3.42;;;2.00;;
37907;SDS011;23740;51.550;6.846;2023-08-20T14:24:40;2.00;;;1.70;;
37907;SDS011;23740;51.550;6.846;2023-08-20T14:27:08;1.55;;;1.45;;
37907;SDS011;23740;51.550;6.846;2023-08-20T14:29:36;2.88;;;1.83;;
37907;SDS011;23740;51.550;6.846;2023-08-20T14:32:05;2.47;;;1.75;;
37907;SDS011;23740;51.550;6.846;2023-08-20T14:34:33;1.42;;;1.33;;
37907;SDS011;23740;51.550;6.846;2023-08-20T14:37:01;2.45;;;1.65;;
37907;SDS011;23740;51.550;6.846;2023-08-20T14:39:29;2.13;;;1.75;;
37907;SDS011;23740;51.550;6.846;2023-08-20T14:41:58;2.63;;;1.70;;
37907;SDS011;23740;51.550;6.846;2023-08-20T14:44:26;2.03;;;1.73;;
37907;SDS011;23740;51.550;6.846;2023-08-20T14:46:54;2.28;;;1.67;;
37907;SDS011;23740;51.550;6.846;2023-08-20T14:49:24;1.90;;;1.75;;
37907;SDS011;23740;51.550;6.846;2023-08-20T14:51:52;3.95;;;1.50;;